Mora, MN

4:59 PM CST on November 24, 2017 (GMT -0600)
Mora Municipal

Weather History for KJMR - March, 2013

Change the Weather History Date:

Monday, March 25, 2013

  Actual Average Record
Temperature  
Mean Temperature 26 °F -  
Max Temperature 35 °F 43 °F 67 °F (1968)
Min Temperature 17 °F 21 °F -5 °F (1955)
Degree Days  
Heating Degree Days 39    
Moisture  
Dew Point 16 °F    
Average Humidity 60    
Maximum Humidity 74    
Minimum Humidity 44    
Precipitation  
Precipitation 0.00 in - - ()
Sea Level Pressure  
Sea Level Pressure 30.13 in    
Wind  
Wind Speed 6 mph (NNW)    
Max Wind Speed 16 mph    
Max Gust Speed 25 mph    
Visibility 10 miles    
Events      
Averages and records for this station are not official NWS values.
T = Trace of Precipitation, MM = Missing Value Source: NWS Daily Summary

Daily Weather History Graph

Daily Weather History Graph

Search for Another Location

Airport or City:

Trip Planner

Search our weather history database for the weather conditions in past years. The results will help you decide how hot, cold, wet, or windy it might be!

Date:

Astronomy

Mar. 25, 2013 Rise Set
Actual Time 7:05 AM CDT 7:32 PM CDT
Civil Twilight 6:36 AM CDT 8:02 PM CDT
Nautical Twilight 6:00 AM CDT 8:38 PM CDT
Astronomical Twilight 5:24 AM CDT 9:14 PM CDT
Moon 6:02 PM CDT (3/25) 5:54 AM CDT (3/25)
Length of Visible Light 13h 26m
Length of Day
12h 26m
Waxing Gibbous, 96% of the Moon is Illuminated
Mar 25
Waxing Gibbous
Mar 27
Full
Apr 2
Last Quarter
Apr 10
New
Apr 18
First Quarter

Hourly Weather History & Observations

Time (CDT) Temp. Windchill Dew Point Humidity Pressure Visibility Wind Dir Wind Speed Gust Speed Precip Events Conditions
12:12 AM 26.6 °F - 19.4 °F 74% 30.08 in 10.0 mi Calm Calm - N/A   Clear
12:32 AM 24.8 °F 19.1 °F 17.6 °F 74% 30.07 in 10.0 mi NNW 4.6 mph - N/A   Clear
12:52 AM 24.8 °F 20.5 °F 15.8 °F 69% 30.07 in 10.0 mi NNW 3.5 mph - N/A   Clear
1:12 AM 23.0 °F 15.8 °F 14.0 °F 68% 30.07 in 10.0 mi NNW 5.8 mph - N/A   Clear
1:32 AM 21.2 °F 13.6 °F 14.0 °F 74% 30.07 in 10.0 mi NNW 5.8 mph - N/A   Clear
1:52 AM 21.2 °F 12.6 °F 14.0 °F 74% 30.07 in 10.0 mi NNW 6.9 mph - N/A   Clear
2:12 AM 21.2 °F 12.6 °F 14.0 °F 74% 30.07 in 10.0 mi NNW 6.9 mph - N/A   Clear
2:32 AM 23.0 °F 14.7 °F 14.0 °F 68% 30.07 in 10.0 mi North 6.9 mph - N/A   Clear
2:52 AM 23.0 °F 15.8 °F 14.0 °F 68% 30.07 in 10.0 mi NNW 5.8 mph - N/A   Clear
3:12 AM 23.0 °F 14.7 °F 14.0 °F 68% 30.07 in 10.0 mi NNW 6.9 mph - N/A   Clear
3:32 AM 23.0 °F 15.8 °F 14.0 °F 68% 30.07 in 10.0 mi North 5.8 mph - N/A   Clear
3:52 AM 23.0 °F 15.8 °F 14.0 °F 68% 30.07 in 10.0 mi North 5.8 mph - N/A   Clear
4:12 AM 23.0 °F 15.8 °F 14.0 °F 68% 30.07 in 10.0 mi North 5.8 mph - N/A   Clear
4:32 AM 23.0 °F 14.7 °F 14.0 °F 68% 30.07 in 10.0 mi North 6.9 mph - N/A   Clear
4:51 AM 21.2 °F 13.6 °F 12.2 °F 68% 30.07 in 10.0 mi North 5.8 mph - N/A   Clear
5:12 AM 21.2 °F 14.9 °F 14.0 °F 74% 30.08 in 10.0 mi North 4.6 mph - N/A   Clear
5:32 AM 21.2 °F 13.6 °F 12.2 °F 68% 30.08 in 10.0 mi North 5.8 mph - N/A   Clear
5:52 AM 21.2 °F 13.6 °F 12.2 °F 68% 30.09 in 10.0 mi North 5.8 mph - N/A   Clear
6:12 AM 19.4 °F 10.4 °F 12.2 °F 74% 30.09 in 10.0 mi NNW 6.9 mph - N/A   Clear
6:32 AM 19.4 °F 11.5 °F 12.2 °F 74% 30.10 in 10.0 mi North 5.8 mph - N/A   Clear
6:52 AM 19.4 °F 10.4 °F 12.2 °F 74% 30.10 in 10.0 mi NNW 6.9 mph - N/A   Clear
7:12 AM 17.6 °F 9.3 °F 10.4 °F 73% 30.10 in 10.0 mi NNW 5.8 mph - N/A   Clear
7:32 AM 17.6 °F 8.2 °F 10.4 °F 73% 30.11 in 10.0 mi NNW 6.9 mph - N/A   Clear
7:52 AM 17.6 °F 9.3 °F 10.4 °F 73% 30.12 in 10.0 mi NNW 5.8 mph - N/A   Clear
8:12 AM 19.4 °F 9.5 °F 12.2 °F 74% 30.12 in 10.0 mi NNW 8.1 mph - N/A   Clear
8:32 AM 21.2 °F 10.9 °F 12.2 °F 68% 30.13 in 10.0 mi NNW 9.2 mph - N/A   Clear
8:52 AM 24.8 °F 16.1 °F 14.0 °F 64% 30.13 in 10.0 mi NNW 8.1 mph - N/A   Clear
9:12 AM 26.6 °F 16.8 °F 15.8 °F 64% 30.13 in 10.0 mi NNW 10.4 mph - N/A   Clear
9:32 AM 26.6 °F 17.5 °F 14.0 °F 59% 30.14 in 10.0 mi NNW 9.2 mph - N/A   Clear
9:52 AM 28.4 °F 20.4 °F 14.0 °F 55% 30.14 in 10.0 mi NNW 8.1 mph - N/A   Clear
10:12 AM 30.2 °F 22.6 °F 14.0 °F 51% 30.14 in 10.0 mi NNW 8.1 mph - N/A   Clear
10:32 AM 32.0 °F 24.8 °F 17.6 °F 55% 30.14 in 10.0 mi NW 8.1 mph - N/A   Clear
10:52 AM 32.0 °F 24.2 °F 15.8 °F 51% 30.14 in 10.0 mi NW 9.2 mph - N/A   Clear
11:12 AM 32.0 °F 23.6 °F 17.6 °F 55% 30.14 in 10.0 mi NW 10.4 mph - N/A   Clear
11:32 AM 33.8 °F 25.3 °F 17.6 °F 52% 30.15 in 10.0 mi NNW 11.5 mph - N/A   Clear
11:52 AM 33.8 °F 27.0 °F 15.8 °F 48% 30.15 in 10.0 mi North 8.1 mph - N/A   Clear
12:12 PM 35.6 °F 29.2 °F 17.6 °F 48% 30.15 in 10.0 mi North 8.1 mph - N/A   Clear
12:32 PM 33.8 °F 25.3 °F 15.8 °F 48% 30.14 in 10.0 mi NNW 11.5 mph 24.2 mph N/A   Scattered Clouds
12:52 PM 33.8 °F 23.5 °F 17.6 °F 52% 30.14 in 10.0 mi NNW 16.1 mph 20.7 mph N/A   Scattered Clouds
1:12 PM 35.6 °F 27.1 °F 17.6 °F 48% 30.14 in 10.0 mi NNW 12.7 mph 21.9 mph N/A   Scattered Clouds
1:32 PM 35.6 °F 27.1 °F 17.6 °F 48% 30.14 in 10.0 mi NNW 12.7 mph 21.9 mph N/A   Clear
1:52 PM 35.6 °F 29.2 °F 17.6 °F 48% 30.14 in 10.0 mi North 8.1 mph 17.3 mph N/A   Clear
2:12 PM 35.6 °F 27.1 °F 17.6 °F 48% 30.14 in 10.0 mi North 12.7 mph 19.6 mph N/A   Clear
2:32 PM 35.6 °F 26.6 °F 17.6 °F 48% 30.14 in 10.0 mi NNW 13.8 mph 18.4 mph N/A   Clear
2:52 PM 35.6 °F 27.5 °F 15.8 °F 44% 30.13 in 10.0 mi North 11.5 mph 21.9 mph N/A   Clear
3:12 PM 35.6 °F 26.2 °F 15.8 °F 44% 30.13 in 10.0 mi North 15.0 mph 25.3 mph N/A   Clear
3:32 PM 35.6 °F 26.6 °F 17.6 °F 48% 30.14 in 10.0 mi NNW 13.8 mph - N/A   Clear
3:52 PM 35.6 °F 25.9 °F 17.6 °F 48% 30.13 in 10.0 mi NNW 16.1 mph 20.7 mph N/A   Clear
4:12 PM 35.6 °F 27.5 °F 17.6 °F 48% 30.14 in 10.0 mi North 11.5 mph 18.4 mph N/A   Clear
4:32 PM 35.6 °F 26.6 °F 17.6 °F 48% 30.14 in 10.0 mi NNW 13.8 mph 18.4 mph N/A   Clear
4:52 PM 35.6 °F 26.2 °F 17.6 °F 48% 30.14 in 10.0 mi NNW 15.0 mph - N/A   Mostly Cloudy
5:12 PM 35.6 °F 28.0 °F 17.6 °F 48% 30.15 in 10.0 mi NNW 10.4 mph - N/A   Mostly Cloudy
5:32 PM 35.6 °F 29.9 °F 15.8 °F 44% 30.15 in 10.0 mi North 6.9 mph 18.4 mph N/A   Mostly Cloudy
5:52 PM 35.6 °F 30.7 °F 15.8 °F 44% 30.15 in 10.0 mi North 5.8 mph - N/A   Overcast
6:12 PM 35.6 °F 31.7 °F 17.6 °F 48% 30.16 in 10.0 mi North 4.6 mph - N/A   Overcast
6:32 PM 35.6 °F 32.8 °F 17.6 °F 48% 30.17 in 10.0 mi North 3.5 mph - N/A   Overcast
6:52 PM 33.8 °F - 17.6 °F 52% 30.17 in 10.0 mi Calm Calm - N/A   Overcast
7:12 PM 33.8 °F 29.6 °F 15.8 °F 48% 30.18 in 10.0 mi North 4.6 mph - N/A   Overcast
7:32 PM 33.8 °F - 17.6 °F 52% 30.18 in 10.0 mi Calm Calm - N/A   Overcast
7:52 PM 33.8 °F - 19.4 °F 56% 30.19 in 10.0 mi Calm Calm - N/A   Overcast
8:12 PM 33.8 °F - 19.4 °F 56% 30.19 in 10.0 mi Calm Calm - N/A   Overcast
8:32 PM 32.0 °F - 19.4 °F 60% 30.19 in 10.0 mi Calm Calm - N/A   Overcast
8:52 PM 32.0 °F - 21.2 °F 64% 30.20 in 10.0 mi Calm Calm - N/A   Overcast
9:12 PM 32.0 °F - 21.2 °F 64% 30.20 in 10.0 mi Calm Calm - N/A   Overcast
9:32 PM 32.0 °F - 23.0 °F 69% 30.20 in 10.0 mi Calm Calm - N/A   Overcast
9:52 PM 32.0 °F 27.5 °F 19.4 °F 60% 30.21 in 10.0 mi NW 4.6 mph - N/A   Overcast
10:12 PM 32.0 °F 28.7 °F 19.4 °F 60% 30.21 in 10.0 mi NW 3.5 mph - N/A   Overcast
10:32 PM 32.0 °F 24.8 °F 19.4 °F 60% 30.21 in 10.0 mi NW 8.1 mph - N/A   Overcast
10:52 PM 32.0 °F 27.5 °F 19.4 °F 60% 30.21 in 10.0 mi NW 4.6 mph - N/A   Overcast
11:12 PM 32.0 °F 24.8 °F 19.4 °F 60% 30.21 in 10.0 mi NW 8.1 mph - N/A   Overcast
11:32 PM 32.0 °F 24.8 °F 19.4 °F 60% 30.21 in 10.0 mi NW 8.1 mph - N/A   Overcast
11:52 PM 32.0 °F 24.2 °F 19.4 °F 60% 30.21 in 10.0 mi NNW 9.2 mph - N/A   Overcast